sensor_id;sensor_type;location;lat;lon;timestamp;pressure;altitude;pressure_sealevel;temperature;humidity
12879;BME280;20617;49.476;10.986;2023-04-02T00:00:21;97381.81;;;9.95;100.00
12879;BME280;20617;49.476;10.986;2023-04-02T00:02:30;97386.09;;;9.96;100.00
12879;BME280;20617;49.476;10.986;2023-04-02T00:04:36;97394.22;;;9.90;100.00
12879;BME280;20617;49.476;10.986;2023-04-02T00:06:41;97391.78;;;9.87;100.00
12879;BME280;20617;49.476;10.986;2023-04-02T00:08:50;97389.97;;;9.89;100.00
12879;BME280;20617;49.476;10.986;2023-04-02T00:11:00;97392.63;;;9.88;100.00
12879;BME280;20617;49.476;10.986;2023-04-02T00:13:21;97395.44;;;10.01;100.00
12879;BME280;20617;49.476;10.986;2023-04-02T00:15:27;97389.38;;;10.00;100.00
12879;BME280;20617;49.476;10.986;2023-04-02T00:17:33;97396.00;;;9.90;100.00
12879;BME280;20617;49.476;10.986;2023-04-02T00:19:42;97403.03;;;9.88;100.00
12879;BME280;20617;49.476;10.986;2023-04-02T00:21:49;97399.25;;;9.93;100.00
12879;BME280;20617;49.476;10.986;2023-04-02T00:23:59;97402.47;;;9.98;100.00
12879;BME280;20617;49.476;10.986;2023-04-02T00:26:07;97404.28;;;9.96;100.00
12879;BME280;20617;49.476;10.986;2023-04-02T00:28:25;97415.69;;;9.94;100.00
12879;BME280;20617;49.476;10.986;2023-04-02T00:30:31;97407.81;;;9.95;100.00
12879;BME280;20617;49.476;10.986;2023-04-02T00:32:36;97410.25;;;9.98;100.00
12879;BME280;20617;49.476;10.986;2023-04-02T00:34:41;97412.59;;;10.03;100.00
12879;BME280;20617;49.476;10.986;2023-04-02T00:36:47;97422.59;;;9.95;100.00
12879;BME280;20617;49.476;10.986;2023-04-02T00:38:52;97420.72;;;9.97;100.00
12879;BME280;20617;49.476;10.986;2023-04-02T00:41:02;97428.13;;;10.05;100.00
12879;BME280;20617;49.476;10.986;2023-04-02T00:43:09;97414.63;;;10.14;100.00
12879;BME280;20617;49.476;10.986;2023-04-02T00:45:22;97423.19;;;10.16;100.00
12879;BME280;20617;49.476;10.986;2023-04-02T00:47:32;97419.16;;;10.26;100.00
12879;BME280;20617;49.476;10.986;2023-04-02T00:49:39;97424.06;;;10.32;100.00
12879;BME280;20617;49.476;10.986;2023-04-02T00:51:47;97424.31;;;10.43;100.00
12879;BME280;20617;49.476;10.986;2023-04-02T00:53:56;97423.75;;;10.54;100.00
12879;BME280;20617;49.476;10.986;2023-04-02T00:56:12;97420.03;;;10.58;100.00
12879;BME280;20617;49.476;10.986;2023-04-02T00:58:25;97420.72;;;10.62;100.00
12879;BME280;20617;49.476;10.986;2023-04-02T01:00:33;97417.34;;;10.60;100.00
12879;BME280;20617;49.476;10.986;2023-04-02T01:02:38;97413.94;;;10.59;100.00
12879;BME280;20617;49.476;10.986;2023-04-02T01:04:51;97418.84;;;10.64;100.00
12879;BME280;20617;49.476;10.986;2023-04-02T01:06:56;97420.06;;;10.42;100.00
12879;BME280;20617;49.476;10.986;2023-04-02T01:09:16;97425.00;;;10.31;100.00
12879;BME280;20617;49.476;10.986;2023-04-02T01:11:35;97428.44;;;10.32;100.00
12879;BME280;20617;49.476;10.986;2023-04-02T01:13:50;97433.56;;;10.33;100.00
12879;BME280;20617;49.476;10.986;2023-04-02T01:16:05;97434.88;;;10.25;100.00
12879;BME280;20617;49.476;10.986;2023-04-02T01:18:18;97433.84;;;10.11;100.00
12879;BME280;20617;49.476;10.986;2023-04-02T01:20:46;97442.28;;;9.99;100.00
12879;BME280;20617;49.476;10.986;2023-04-02T01:22:59;97441.19;;;10.03;100.00
12879;BME280;20617;49.476;10.986;2023-04-02T01:25:07;97441.97;;;10.05;100.00
12879;BME280;20617;49.476;10.986;2023-04-02T01:27:25;97444.41;;;10.08;100.00
12879;BME280;20617;49.476;10.986;2023-04-02T01:29:36;97446.50;;;10.02;100.00
12879;BME280;20617;49.476;10.986;2023-04-02T01:31:44;97443.28;;;9.96;100.00
12879;BME280;20617;49.476;10.986;2023-04-02T01:33:51;97442.28;;;9.99;100.00
12879;BME280;20617;49.476;10.986;2023-04-02T01:36:02;97454.19;;;10.03;100.00
12879;BME280;20617;49.476;10.986;2023-04-02T01:38:12;97453.69;;;9.96;100.00
12879;BME280;20617;49.476;10.986;2023-04-02T01:40:34;97453.22;;;10.06;100.00
12879;BME280;20617;49.476;10.986;2023-04-02T01:42:48;97457.34;;;10.10;100.00
12879;BME280;20617;49.476;10.986;2023-04-02T01:45:03;97464.28;;;10.09;100.00
12879;BME280;20617;49.476;10.986;2023-04-02T01:47:10;97461.34;;;10.00;100.00
12879;BME280;20617;49.476;10.986;2023-04-02T01:49:20;97463.44;;;10.09;100.00
12879;BME280;20617;49.476;10.986;2023-04-02T01:51:32;97471.84;;;10.14;100.00
12879;BME280;20617;49.476;10.986;2023-04-02T01:53:40;97472.63;;;10.16;100.00
12879;BME280;20617;49.476;10.986;2023-04-02T01:55:47;97472.78;;;10.13;100.00
12879;BME280;20617;49.476;10.986;2023-04-02T01:57:53;97474.88;;;10.22;100.00
12879;BME280;20617;49.476;10.986;2023-04-02T02:00:03;97475.72;;;10.23;100.00
12879;BME280;20617;49.476;10.986;2023-04-02T02:02:14;97481.31;;;10.15;100.00
12879;BME280;20617;49.476;10.986;2023-04-02T02:04:21;97478.41;;;10.21;100.00
12879;BME280;20617;49.476;10.986;2023-04-02T02:06:26;97481.16;;;10.18;100.00
12879;BME280;20617;49.476;10.986;2023-04-02T02:08:36;97485.53;;;10.17;100.00
12879;BME280;20617;49.476;10.986;2023-04-02T02:10:43;97485.00;;;10.11;100.00
12879;BME280;20617;49.476;10.986;2023-04-02T02:12:49;97490.16;;;10.12;100.00
12879;BME280;20617;49.476;10.986;2023-04-02T02:14:54;97487.69;;;10.09;100.00
12879;BME280;20617;49.476;10.986;2023-04-02T02:17:13;97485.25;;;10.06;100.00
12879;BME280;20617;49.476;10.986;2023-04-02T02:19:23;97489.78;;;10.03;100.00
12879;BME280;20617;49.476;10.986;2023-04-02T02:21:38;97498.78;;;10.13;100.00
12879;BME280;20617;49.476;10.986;2023-04-02T02:23:44;97492.88;;;10.09;100.00
12879;BME280;20617;49.476;10.986;2023-04-02T02:25:48;97499.44;;;10.01;100.00
12879;BME280;20617;49.476;10.986;2023-04-02T02:27:59;97506.16;;;9.87;100.00
12879;BME280;20617;49.476;10.986;2023-04-02T02:30:12;97504.88;;;9.79;100.00
12879;BME280;20617;49.476;10.986;2023-04-02T02:32:27;97512.00;;;9.75;100.00
12879;BME280;20617;49.476;10.986;2023-04-02T02:34:36;97509.25;;;9.78;100.00
12879;BME280;20617;49.476;10.986;2023-04-02T02:36:47;97514.28;;;9.64;100.00
12879;BME280;20617;49.476;10.986;2023-04-02T02:38:56;97517.06;;;9.61;100.00
12879;BME280;20617;49.476;10.986;2023-04-02T02:41:15;97525.75;;;9.77;100.00
12879;BME280;20617;49.476;10.986;2023-04-02T02:43:25;97512.19;;;9.88;100.00
12879;BME280;20617;49.476;10.986;2023-04-02T02:45:34;97520.16;;;9.85;100.00
12879;BME280;20617;49.476;10.986;2023-04-02T02:47:45;97526.03;;;9.88;100.00
12879;BME280;20617;49.476;10.986;2023-04-02T02:49:54;97524.28;;;9.89;100.00
12879;BME280;20617;49.476;10.986;2023-04-02T02:52:11;97525.03;;;9.91;100.00
12879;BME280;20617;49.476;10.986;2023-04-02T02:54:35;97528.06;;;9.83;100.00
12879;BME280;20617;49.476;10.986;2023-04-02T02:56:45;97533.78;;;9.72;100.00
12879;BME280;20617;49.476;10.986;2023-04-02T02:58:51;97543.50;;;9.69;100.00
12879;BME280;20617;49.476;10.986;2023-04-02T03:01:03;97545.22;;;9.68;100.00
12879;BME280;20617;49.476;10.986;2023-04-02T03:03:16;97543.72;;;9.64;100.00
12879;BME280;20617;49.476;10.986;2023-04-02T03:05:29;97556.56;;;9.67;100.00
12879;BME280;20617;49.476;10.986;2023-04-02T03:07:41;97553.44;;;9.61;100.00
12879;BME280;20617;49.476;10.986;2023-04-02T03:09:48;97563.88;;;9.59;100.00
12879;BME280;20617;49.476;10.986;2023-04-02T03:12:01;97561.06;;;9.64;100.00
12879;BME280;20617;49.476;10.986;2023-04-02T03:14:14;97569.31;;;9.55;100.00
12879;BME280;20617;49.476;10.986;2023-04-02T03:16:26;97575.50;;;9.52;100.00
12879;BME280;20617;49.476;10.986;2023-04-02T03:18:41;97577.19;;;9.53;100.00
12879;BME280;20617;49.476;10.986;2023-04-02T03:20:50;97587.38;;;9.58;100.00
12879;BME280;20617;49.476;10.986;2023-04-02T03:23:02;97585.81;;;9.53;100.00
12879;BME280;20617;49.476;10.986;2023-04-02T03:25:20;97589.63;;;9.46;100.00
12879;BME280;20617;49.476;10.986;2023-04-02T03:27:31;97601.78;;;9.46;100.00
12879;BME280;20617;49.476;10.986;2023-04-02T03:29:41;97602.09;;;9.40;100.00
12879;BME280;20617;49.476;10.986;2023-04-02T03:31:49;97610.63;;;9.42;100.00
12879;BME280;20617;49.476;10.986;2023-04-02T03:34:03;97618.28;;;9.45;100.00
12879;BME280;20617;49.476;10.986;2023-04-02T03:36:15;97610.31;;;9.48;100.00
12879;BME280;20617;49.476;10.986;2023-04-02T03:38:26;97614.97;;;9.41;100.00
12879;BME280;20617;49.476;10.986;2023-04-02T03:40:36;97621.00;;;9.42;100.00
12879;BME280;20617;49.476;10.986;2023-04-02T03:42:47;97620.28;;;9.40;100.00
12879;BME280;20617;49.476;10.986;2023-04-02T03:44:56;97623.41;;;9.46;100.00
12879;BME280;20617;49.476;10.986;2023-04-02T03:47:09;97629.44;;;9.47;100.00
12879;BME280;20617;49.476;10.986;2023-04-02T03:49:26;97626.44;;;9.37;100.00
12879;BME280;20617;49.476;10.986;2023-04-02T03:51:35;97635.06;;;9.38;100.00
12879;BME280;20617;49.476;10.986;2023-04-02T03:53:43;97638.59;;;9.37;100.00
12879;BME280;20617;49.476;10.986;2023-04-02T03:55:48;97639.44;;;9.37;100.00
12879;BME280;20617;49.476;10.986;2023-04-02T03:57:58;97641.19;;;9.37;100.00
12879;BME280;20617;49.476;10.986;2023-04-02T04:00:13;97640.31;;;9.36;100.00
12879;BME280;20617;49.476;10.986;2023-04-02T04:02:33;97640.41;;;9.35;100.00
12879;BME280;20617;49.476;10.986;2023-04-02T04:04:45;97644.63;;;9.37;100.00
12879;BME280;20617;49.476;10.986;2023-04-02T04:06:52;97648.75;;;9.41;100.00
12879;BME280;20617;49.476;10.986;2023-04-02T04:09:06;97652.44;;;9.37;100.00
12879;BME280;20617;49.476;10.986;2023-04-02T04:11:15;97656.63;;;9.40;100.00
12879;BME280;20617;49.476;10.986;2023-04-02T04:13:27;97668.56;;;9.44;100.00
12879;BME280;20617;49.476;10.986;2023-04-02T04:15:36;97658.78;;;9.49;100.00
12879;BME280;20617;49.476;10.986;2023-04-02T04:17:48;97664.63;;;9.54;100.00
12879;BME280;20617;49.476;10.986;2023-04-02T04:20:13;97663.75;;;9.53;100.00
12879;BME280;20617;49.476;10.986;2023-04-02T04:22:26;97666.34;;;9.53;100.00
12879;BME280;20617;49.476;10.986;2023-04-02T04:24:49;97669.72;;;9.56;100.00
12879;BME280;20617;49.476;10.986;2023-04-02T04:26:57;97669.81;;;9.54;100.00
12879;BME280;20617;49.476;10.986;2023-04-02T04:29:28;97665.38;;;9.56;100.00
12879;BME280;20617;49.476;10.986;2023-04-02T04:31:40;97673.31;;;9.53;100.00
12879;BME280;20617;49.476;10.986;2023-04-02T04:33:51;97681.41;;;9.47;100.00
12879;BME280;20617;49.476;10.986;2023-04-02T04:36:21;97678.81;;;9.47;100.00
12879;BME280;20617;49.476;10.986;2023-04-02T04:38:39;97689.03;;;9.50;100.00
12879;BME280;20617;49.476;10.986;2023-04-02T04:40:50;97689.28;;;9.45;100.00
12879;BME280;20617;49.476;10.986;2023-04-02T04:43:02;97692.78;;;9.44;100.00
12879;BME280;20617;49.476;10.986;2023-04-02T04:45:21;97695.72;;;9.56;100.00
12879;BME280;20617;49.476;10.986;2023-04-02T04:47:33;97698.50;;;9.51;100.00
12879;BME280;20617;49.476;10.986;2023-04-02T04:49:42;97698.94;;;9.42;100.00
12879;BME280;20617;49.476;10.986;2023-04-02T04:51:55;97704.22;;;9.40;100.00
12879;BME280;20617;49.476;10.986;2023-04-02T04:54:01;97715.59;;;9.38;100.00
12879;BME280;20617;49.476;10.986;2023-04-02T04:56:09;97710.47;;;9.36;100.00
12879;BME280;20617;49.476;10.986;2023-04-02T04:58:26;97716.88;;;9.29;100.00
12879;BME280;20617;49.476;10.986;2023-04-02T05:00:41;97717.50;;;9.34;100.00
12879;BME280;20617;49.476;10.986;2023-04-02T05:02:54;97716.88;;;9.29;100.00
12879;BME280;20617;49.476;10.986;2023-04-02T05:05:03;97733.94;;;9.35;100.00
12879;BME280;20617;49.476;10.986;2023-04-02T05:07:15;97724.94;;;9.42;100.00
12879;BME280;20617;49.476;10.986;2023-04-02T05:09:28;97733.31;;;9.48;100.00
12879;BME280;20617;49.476;10.986;2023-04-02T05:11:40;97735.13;;;9.46;100.00
12879;BME280;20617;49.476;10.986;2023-04-02T05:13:50;97740.78;;;9.36;100.00
12879;BME280;20617;49.476;10.986;2023-04-02T05:16:05;97748.41;;;9.40;100.00
12879;BME280;20617;49.476;10.986;2023-04-02T05:18:20;97748.81;;;9.31;100.00
12879;BME280;20617;49.476;10.986;2023-04-02T05:20:31;97754.34;;;9.23;100.00
12879;BME280;20617;49.476;10.986;2023-04-02T05:22:45;97764.03;;;9.20;100.00
12879;BME280;20617;49.476;10.986;2023-04-02T05:25:07;97765.06;;;9.16;100.00
12879;BME280;20617;49.476;10.986;2023-04-02T05:27:22;97770.91;;;9.21;100.00
12879;BME280;20617;49.476;10.986;2023-04-02T05:29:34;97767.38;;;9.22;100.00
12879;BME280;20617;49.476;10.986;2023-04-02T05:31:42;97771.97;;;9.17;100.00
12879;BME280;20617;49.476;10.986;2023-04-02T05:33:51;97779.38;;;9.24;100.00
12879;BME280;20617;49.476;10.986;2023-04-02T05:36:00;97783.41;;;9.32;100.00
12879;BME280;20617;49.476;10.986;2023-04-02T05:38:18;97779.91;;;9.33;100.00
12879;BME280;20617;49.476;10.986;2023-04-02T05:40:32;97776.47;;;9.32;100.00
12879;BME280;20617;49.476;10.986;2023-04-02T05:42:41;97782.34;;;9.36;100.00
12879;BME280;20617;49.476;10.986;2023-04-02T05:45:02;97787.41;;;9.39;100.00
12879;BME280;20617;49.476;10.986;2023-04-02T05:47:13;97791.06;;;9.35;100.00
12879;BME280;20617;49.476;10.986;2023-04-02T05:49:24;97789.03;;;9.41;100.00
12879;BME280;20617;49.476;10.986;2023-04-02T05:51:38;97792.59;;;9.39;100.00
12879;BME280;20617;49.476;10.986;2023-04-02T05:53:51;97788.00;;;9.45;100.00
12879;BME280;20617;49.476;10.986;2023-04-02T05:56:01;97794.66;;;9.51;100.00
12879;BME280;20617;49.476;10.986;2023-04-02T05:58:16;97796.03;;;9.39;100.00
12879;BME280;20617;49.476;10.986;2023-04-02T06:03:15;97802.66;;;9.46;100.00
12879;BME280;20617;49.476;10.986;2023-04-02T06:05:31;97807.91;;;9.45;100.00
12879;BME280;20617;49.476;10.986;2023-04-02T06:07:42;97809.91;;;9.40;100.00
12879;BME280;20617;49.476;10.986;2023-04-02T06:09:55;97817.63;;;9.41;100.00
12879;BME280;20617;49.476;10.986;2023-04-02T06:12:11;97823.13;;;9.54;100.00
12879;BME280;20617;49.476;10.986;2023-04-02T06:14:21;97816.31;;;9.51;100.00
12879;BME280;20617;49.476;10.986;2023-04-02T06:16:31;97820.38;;;9.57;100.00
12879;BME280;20617;49.476;10.986;2023-04-02T06:18:39;97823.19;;;9.52;100.00
12879;BME280;20617;49.476;10.986;2023-04-02T06:20:45;97820.44;;;9.56;100.00
12879;BME280;20617;49.476;10.986;2023-04-02T06:22:54;97827.03;;;9.63;100.00
12879;BME280;20617;49.476;10.986;2023-04-02T06:25:07;97825.91;;;9.68;100.00
12879;BME280;20617;49.476;10.986;2023-04-02T06:27:17;97830.78;;;9.57;100.00
12879;BME280;20617;49.476;10.986;2023-04-02T06:29:27;97837.78;;;9.55;100.00
12879;BME280;20617;49.476;10.986;2023-04-02T06:31:43;97837.16;;;9.50;100.00
12879;BME280;20617;49.476;10.986;2023-04-02T06:33:51;97833.72;;;9.49;100.00
12879;BME280;20617;49.476;10.986;2023-04-02T06:36:00;97835.97;;;9.57;100.00
12879;BME280;20617;49.476;10.986;2023-04-02T06:38:15;97843.63;;;9.60;100.00
12879;BME280;20617;49.476;10.986;2023-04-02T06:40:38;97846.94;;;9.64;100.00
12879;BME280;20617;49.476;10.986;2023-04-02T06:42:54;97853.59;;;9.69;100.00
12879;BME280;20617;49.476;10.986;2023-04-02T06:45:28;97853.34;;;9.75;100.00
12879;BME280;20617;49.476;10.986;2023-04-02T06:48:05;97851.91;;;9.68;100.00
12879;BME280;20617;49.476;10.986;2023-04-02T06:50:22;97851.84;;;9.70;100.00
12879;BME280;20617;49.476;10.986;2023-04-02T06:52:34;97854.72;;;9.64;100.00
12879;BME280;20617;49.476;10.986;2023-04-02T06:54:42;97864.06;;;9.68;100.00
12879;BME280;20617;49.476;10.986;2023-04-02T06:56:51;97872.22;;;9.60;100.00
12879;BME280;20617;49.476;10.986;2023-04-02T06:59:04;97877.47;;;9.59;100.00
12879;BME280;20617;49.476;10.986;2023-04-02T07:01:14;97879.09;;;9.61;100.00
12879;BME280;20617;49.476;10.986;2023-04-02T07:03:23;97876.31;;;9.66;100.00
12879;BME280;20617;49.476;10.986;2023-04-02T07:05:35;97888.25;;;9.70;100.00
12879;BME280;20617;49.476;10.986;2023-04-02T07:07:43;97890.75;;;9.71;100.00
12879;BME280;20617;49.476;10.986;2023-04-02T07:09:48;97896.22;;;9.65;100.00
12879;BME280;20617;49.476;10.986;2023-04-02T07:11:56;97901.84;;;9.56;100.00
12879;BME280;20617;49.476;10.986;2023-04-02T07:14:01;97904.44;;;9.56;100.00
12879;BME280;20617;49.476;10.986;2023-04-02T07:16:10;97909.22;;;9.65;100.00
12879;BME280;20617;49.476;10.986;2023-04-02T07:18:24;97915.75;;;9.74;100.00
12879;BME280;20617;49.476;10.986;2023-04-02T07:20:33;97909.22;;;9.65;100.00
12879;BME280;20617;49.476;10.986;2023-04-02T07:22:42;97911.81;;;9.65;100.00
12879;BME280;20617;49.476;10.986;2023-04-02T07:24:47;97916.00;;;9.69;100.00
12879;BME280;20617;49.476;10.986;2023-04-02T07:26:52;97916.63;;;9.74;100.00
12879;BME280;20617;49.476;10.986;2023-04-02T07:29:00;97922.53;;;9.78;100.00
12879;BME280;20617;49.476;10.986;2023-04-02T07:31:13;97933.59;;;9.83;100.00
12879;BME280;20617;49.476;10.986;2023-04-02T07:33:23;97937.47;;;9.73;100.00
12879;BME280;20617;49.476;10.986;2023-04-02T07:35:29;97942.34;;;9.81;100.00
12879;BME280;20617;49.476;10.986;2023-04-02T07:37:36;97954.47;;;9.80;100.00
12879;BME280;20617;49.476;10.986;2023-04-02T07:39:41;97961.53;;;9.78;100.00
12879;BME280;20617;49.476;10.986;2023-04-02T07:41:53;97954.63;;;9.77;100.00
12879;BME280;20617;49.476;10.986;2023-04-02T07:44:02;97969.50;;;9.73;100.00
12879;BME280;20617;49.476;10.986;2023-04-02T07:46:08;97976.66;;;9.68;100.00
12879;BME280;20617;49.476;10.986;2023-04-02T07:48:16;97975.63;;;9.72;100.00
12879;BME280;20617;49.476;10.986;2023-04-02T07:50:21;97984.00;;;9.79;100.00
12879;BME280;20617;49.476;10.986;2023-04-02T07:52:26;97984.97;;;9.77;100.00
12879;BME280;20617;49.476;10.986;2023-04-02T07:54:32;97981.66;;;9.73;100.00
12879;BME280;20617;49.476;10.986;2023-04-02T07:56:39;97979.34;;;9.67;100.00
12879;BME280;20617;49.476;10.986;2023-04-02T07:58:44;97988.75;;;9.69;100.00
12879;BME280;20617;49.476;10.986;2023-04-02T08:00:52;97993.69;;;9.75;100.00
12879;BME280;20617;49.476;10.986;2023-04-02T08:02:57;97994.41;;;9.79;100.00
12879;BME280;20617;49.476;10.986;2023-04-02T08:05:02;98001.91;;;9.66;100.00
12879;BME280;20617;49.476;10.986;2023-04-02T08:07:07;98007.94;;;9.67;100.00
12879;BME280;20617;49.476;10.986;2023-04-02T08:09:12;98013.50;;;9.37;100.00
12879;BME280;20617;49.476;10.986;2023-04-02T08:11:17;98004.22;;;9.52;100.00
12879;BME280;20617;49.476;10.986;2023-04-02T08:13:22;98005.13;;;9.51;100.00
12879;BME280;20617;49.476;10.986;2023-04-02T08:15:27;98013.28;;;9.42;100.00
12879;BME280;20617;49.476;10.986;2023-04-02T08:17:35;98017.78;;;9.38;100.00
12879;BME280;20617;49.476;10.986;2023-04-02T08:19:40;98018.75;;;9.36;100.00
12879;BME280;20617;49.476;10.986;2023-04-02T08:21:56;98031.19;;;9.27;100.00
12879;BME280;20617;49.476;10.986;2023-04-02T08:24:00;98040.03;;;9.45;100.00
12879;BME280;20617;49.476;10.986;2023-04-02T08:26:05;98033.34;;;9.60;100.00
12879;BME280;20617;49.476;10.986;2023-04-02T08:28:11;98030.91;;;9.56;100.00
12879;BME280;20617;49.476;10.986;2023-04-02T08:30:15;98031.88;;;9.53;100.00
12879;BME280;20617;49.476;10.986;2023-04-02T08:32:21;98028.13;;;9.40;100.00
12879;BME280;20617;49.476;10.986;2023-04-02T08:34:29;98034.59;;;9.29;100.00
12879;BME280;20617;49.476;10.986;2023-04-02T08:36:35;98028.44;;;9.32;100.00
12879;BME280;20617;49.476;10.986;2023-04-02T08:38:41;98032.38;;;9.20;100.00
12879;BME280;20617;49.476;10.986;2023-04-02T08:40:48;98044.81;;;9.34;100.00
12879;BME280;20617;49.476;10.986;2023-04-02T08:43:07;98039.81;;;9.50;100.00
12879;BME280;20617;49.476;10.986;2023-04-02T08:45:19;98045.72;;;9.53;100.00
12879;BME280;20617;49.476;10.986;2023-04-02T08:47:28;98034.63;;;9.50;100.00
12879;BME280;20617;49.476;10.986;2023-04-02T08:49:46;98038.25;;;9.46;100.00
12879;BME280;20617;49.476;10.986;2023-04-02T08:51:53;98044.56;;;9.40;100.00
12879;BME280;20617;49.476;10.986;2023-04-02T08:53:59;98042.84;;;9.39;100.00
12879;BME280;20617;49.476;10.986;2023-04-02T08:56:08;98042.13;;;9.36;100.00
12879;BME280;20617;49.476;10.986;2023-04-02T08:58:27;98051.84;;;9.52;100.00
12879;BME280;20617;49.476;10.986;2023-04-02T09:00:36;98049.66;;;9.42;100.00
12879;BME280;20617;49.476;10.986;2023-04-02T09:02:46;98056.88;;;9.35;100.00
12879;BME280;20617;49.476;10.986;2023-04-02T09:04:56;98056.53;;;9.22;100.00
12879;BME280;20617;49.476;10.986;2023-04-02T09:07:02;98050.84;;;9.13;100.00
12879;BME280;20617;49.476;10.986;2023-04-02T09:09:07;98052.84;;;9.06;100.00
12879;BME280;20617;49.476;10.986;2023-04-02T09:11:21;98060.88;;;9.00;100.00
12879;BME280;20617;49.476;10.986;2023-04-02T09:13:29;98061.47;;;9.06;100.00
12879;BME280;20617;49.476;10.986;2023-04-02T09:15:38;98061.84;;;9.19;100.00
12879;BME280;20617;49.476;10.986;2023-04-02T09:17:43;98057.25;;;9.26;100.00
12879;BME280;20617;49.476;10.986;2023-04-02T09:20:01;98071.13;;;9.25;100.00
12879;BME280;20617;49.476;10.986;2023-04-02T09:22:18;98070.91;;;9.31;100.00
12879;BME280;20617;49.476;10.986;2023-04-02T09:24:24;98077.19;;;9.25;100.00
12879;BME280;20617;49.476;10.986;2023-04-02T09:26:31;98086.09;;;9.18;100.00
12879;BME280;20617;49.476;10.986;2023-04-02T09:28:36;98098.25;;;9.18;100.00
12879;BME280;20617;49.476;10.986;2023-04-02T09:30:54;98105.81;;;9.24;100.00
12879;BME280;20617;49.476;10.986;2023-04-02T09:33:03;98106.75;;;9.21;100.00
12879;BME280;20617;49.476;10.986;2023-04-02T09:35:15;98103.03;;;9.28;100.00
12879;BME280;20617;49.476;10.986;2023-04-02T09:37:27;98101.81;;;9.37;100.00
12879;BME280;20617;49.476;10.986;2023-04-02T09:39:32;98106.91;;;9.40;100.00
12879;BME280;20617;49.476;10.986;2023-04-02T09:41:37;98106.69;;;9.45;100.00
12879;BME280;20617;49.476;10.986;2023-04-02T09:43:42;98112.75;;;9.23;100.00
12879;BME280;20617;49.476;10.986;2023-04-02T09:45:59;98107.59;;;9.00;100.00
12879;BME280;20617;49.476;10.986;2023-04-02T09:48:20;98123.63;;;9.11;100.00
12879;BME280;20617;49.476;10.986;2023-04-02T09:50:30;98114.13;;;9.10;100.00
12879;BME280;20617;49.476;10.986;2023-04-02T09:52:35;98120.91;;;9.14;100.00
12879;BME280;20617;49.476;10.986;2023-04-02T09:54:40;98122.03;;;9.07;100.00
12879;BME280;20617;49.476;10.986;2023-04-02T09:56:59;98121.50;;;8.99;100.00
12879;BME280;20617;49.476;10.986;2023-04-02T09:59:06;98138.06;;;8.95;100.00
12879;BME280;20617;49.476;10.986;2023-04-02T10:01:26;98131.09;;;8.97;100.00
12879;BME280;20617;49.476;10.986;2023-04-02T10:03:31;98140.16;;;9.09;100.00
12879;BME280;20617;49.476;10.986;2023-04-02T10:05:39;98140.22;;;9.07;100.00
12879;BME280;20617;49.476;10.986;2023-04-02T10:07:48;98140.56;;;8.98;100.00
12879;BME280;20617;49.476;10.986;2023-04-02T10:09:56;98148.13;;;9.04;100.00
12879;BME280;20617;49.476;10.986;2023-04-02T10:12:04;98150.16;;;9.19;100.00
12879;BME280;20617;49.476;10.986;2023-04-02T10:14:15;98147.56;;;9.19;100.00
12879;BME280;20617;49.476;10.986;2023-04-02T10:16:25;98153.75;;;9.15;100.00
12879;BME280;20617;49.476;10.986;2023-04-02T10:18:40;98158.38;;;9.07;100.00
12879;BME280;20617;49.476;10.986;2023-04-02T10:20:52;98152.88;;;9.16;100.00
12879;BME280;20617;49.476;10.986;2023-04-02T10:22:58;98159.94;;;9.35;100.00
12879;BME280;20617;49.476;10.986;2023-04-02T10:25:12;98159.88;;;9.36;100.00
12879;BME280;20617;49.476;10.986;2023-04-02T10:27:24;98164.50;;;9.51;100.00
12879;BME280;20617;49.476;10.986;2023-04-02T10:29:46;98161.75;;;9.33;100.00
12879;BME280;20617;49.476;10.986;2023-04-02T10:31:59;98166.94;;;9.33;100.00
12879;BME280;20617;49.476;10.986;2023-04-02T10:34:13;98168.28;;;9.43;100.00
12879;BME280;20617;49.476;10.986;2023-04-02T10:36:31;98174.56;;;9.37;100.00
12879;BME280;20617;49.476;10.986;2023-04-02T10:38:42;98172.41;;;9.48;100.00
12879;BME280;20617;49.476;10.986;2023-04-02T10:40:57;98173.16;;;9.28;100.00
12879;BME280;20617;49.476;10.986;2023-04-02T10:43:42;98181.97;;;9.24;100.00
12879;BME280;20617;49.476;10.986;2023-04-02T10:45:53;98190.72;;;9.22;100.00
12879;BME280;20617;49.476;10.986;2023-04-02T10:48:05;98193.19;;;9.25;100.00
12879;BME280;20617;49.476;10.986;2023-04-02T10:50:24;98191.72;;;9.19;100.00
12879;BME280;20617;49.476;10.986;2023-04-02T10:52:38;98200.13;;;9.02;100.00
12879;BME280;20617;49.476;10.986;2023-04-02T10:54:47;98199.28;;;9.02;100.00
12879;BME280;20617;49.476;10.986;2023-04-02T10:56:57;98207.59;;;9.10;100.00
12879;BME280;20617;49.476;10.986;2023-04-02T10:59:10;98214.78;;;9.03;100.00
12879;BME280;20617;49.476;10.986;2023-04-02T11:01:22;98207.44;;;8.91;100.00
12879;BME280;20617;49.476;10.986;2023-04-02T11:03:35;98219.03;;;9.06;100.00
12879;BME280;20617;49.476;10.986;2023-04-02T11:05:43;98230.44;;;9.02;100.00
12879;BME280;20617;49.476;10.986;2023-04-02T11:07:58;98223.59;;;8.99;100.00
12879;BME280;20617;49.476;10.986;2023-04-02T11:10:05;98234.44;;;9.11;100.00
12879;BME280;20617;49.476;10.986;2023-04-02T11:12:18;98235.28;;;9.11;100.00
12879;BME280;20617;49.476;10.986;2023-04-02T11:14:26;98236.75;;;9.18;100.00
12879;BME280;20617;49.476;10.986;2023-04-02T11:16:32;98241.91;;;9.20;100.00
12879;BME280;20617;49.476;10.986;2023-04-02T11:21:40;98233.84;;;9.49;100.00
12879;BME280;20617;49.476;10.986;2023-04-02T11:24:02;98234.47;;;9.33;100.00
12879;BME280;20617;49.476;10.986;2023-04-02T11:26:30;98242.75;;;9.20;100.00
12879;BME280;20617;49.476;10.986;2023-04-02T11:28:38;98244.88;;;9.09;100.00